Aviation Digital Data Service (ADDS)

Output produced by METARs form (0638 UTC 27 March 2017)
found at http://www.aviationweather.gov/adds/metars/
 
KUES 270520Z 2706/2806 VRB03KT 1 1/2SM BR OVC005 
     FM271600 VRB02KT 3SM BR OVC008 
     FM271800 VRB02KT P6SM OVC010 
     FM272300 04005KT P6SM BKN008 
     FM280500 02006KT P6SM BKN020
       
KUIN 270520Z 2706/2806 VRB04KT P6SM OVC025 
     FM270900 VRB04KT P6SM VCSH OVC020 
     FM271200 06007KT 3SM SHRA OVC008 
     FM272000 01009KT P6SM OVC008
       
KUKI 270540Z 2706/2806 34009KT 6SM -RA BR SCT028 BKN035 OVC050 
     TEMPO 2707/2710 SCT015 BKN028 OVC050 
     FM271000 VRB05KT P6SM SCT030 SCT050 BKN100 
     TEMPO 2710/2714 -SHRA BKN030 
     FM271800 34003KT P6SM SCT050 SCT100 BKN250 
     FM280000 32006KT P6SM FEW100 SCT250
       
KUNV 270611Z 2706/2806 20004KT 6SM -SHRA OVC010 
     FM270900 21003KT 5SM BR VCSH OVC010 
     FM271500 24005KT P6SM BKN015 
     FM271800 25008KT P6SM SCT025 BKN050 
     FM280000 VRB03KT P6SM OVC050
       
KUTS 270520Z 2706/2806 16004KT P6SM SCT250 
     FM270700 18010KT P6SM VCTS OVC012CB 
     TEMPO 2707/2709 TSRA 
     FM270900 17006KT P6SM OVC010 
     FM271600 20008KT P6SM BKN025 
     FM271800 20006KT P6SM BKN035 
     FM272100 21005KT P6SM VCSH BKN035 
     FM280100 VRB03KT P6SM SCT025 BKN250